Decoded Metar for SBKP (CAMPINAS in BRAZIL) (IATA:VCP) | Meteo·Mobile Aviation Weather
aviador You're here:

SBKP Decoded Metar

CAMPINAS in BRAZIL
Report Time2018-11-19 07:00:00
UTC Time2018-11-19 08:58:10
Flight Rules Old
Wind110° at 06 kt
W.Decomp.*RWY 15: 5.6 kt HW 2.1 kt LCW
W.Rank110° ranks 3
Current wind is below 110° avg. (7.8)
Visibility7000 m
Phenomena:Light Rain
Clouds:Broken 007 Hf
Expected CloudBase > 400 ft AGL from Temp-Dew spread
Ceiling700 ft
Temp19°C (ISA +8)
Dew Point18°C (94% RH)
QNH1013 hPa
Density Alt3,425 ft
Elevation2,169 ft
Report Wrong Elevation
Raw Report
METAR SBKP 190700Z 11006KT 7000 -RA BKN007 19/18 Q1013=

Extra information for SBKP:More info

Metar Taf Metar & Taf Last 4 Metars F.Rules Stats Wind Profile Meteogram Temp Stats Airport Information Weather charts Add Link Nearby VenuesMetar ALERT Operation Metar Decoded Social comments